Time;durP1;ratioP1;P1;durP2;ratioP2;P2;SDS_P1;SDS_P2;PMS_P1;PMS_P2;Temp;Humidity;BMP_temperature;BMP_pressure;BME280_temperature;BME280_humidity;BME280_pressure;Samples;Min_cycle;Max_cycle;Signal;HPM_P1;HPM_P2
2022/10/28 00:02:12;;;;;;;33.00;14.83;;;;;;;-145.18;100.00;46654.53;5073534;28;20033;-70
2022/10/28 00:04:37;;;;;;;40.73;14.97;;;;;;;-145.18;100.00;46650.63;5073444;28;20061;-70
2022/10/28 00:07:03;;;;;;;36.33;15.03;;;;;;;-145.18;100.00;46652.59;5073322;28;20528;-70
2022/10/28 00:09:29;;;;;;;33.27;14.43;;;;;;;-145.18;100.00;46644.78;5073517;28;20082;-70
2022/10/28 00:11:54;;;;;;;28.00;13.93;;;;;;;-145.18;100.00;46646.72;5071823;28;20044;-71
2022/10/28 00:14:19;;;;;;;34.93;14.03;;;;;;;-145.18;100.00;46650.63;5073605;28;20036;-69
2022/10/28 00:16:45;;;;;;;34.73;16.17;;;;;;;-145.18;100.00;46646.72;5073177;28;20032;-70
2022/10/28 00:19:12;;;;;;;33.07;15.30;;;;;;;-145.18;100.00;46648.69;5072544;28;20044;-70
2022/10/28 00:21:38;;;;;;;25.67;13.60;;;;;;;-145.18;100.00;46648.69;5073048;28;20039;-70
2022/10/28 00:24:05;;;;;;;26.40;14.57;;;;;;;-145.18;100.00;46650.63;5073321;28;20029;-70
2022/10/28 00:26:32;;;;;;;24.03;12.53;;;;;;;-145.18;100.00;46644.78;5073221;28;20032;-71
2022/10/28 00:29:03;;;;;;;23.83;11.50;;;;;;;-145.18;100.00;46648.69;5073423;28;20025;-70
2022/10/28 00:31:30;;;;;;;22.90;11.87;;;;;;;-145.18;100.00;46648.69;5073178;28;20478;-70
2022/10/28 00:33:57;;;;;;;28.73;11.60;;;;;;;-145.18;100.00;46644.78;5072995;28;20024;-70
2022/10/28 00:36:26;;;;;;;27.03;11.50;;;;;;;-145.18;100.00;46652.59;5072834;28;20027;-70
2022/10/28 00:38:53;;;;;;;28.07;11.63;;;;;;;-145.18;100.00;46646.72;5072963;28;20024;-70
2022/10/28 00:41:25;;;;;;;27.03;11.13;;;;;;;-145.18;100.00;46648.69;5073170;28;20120;-70
2022/10/28 00:43:54;;;;;;;23.73;11.90;;;;;;;-145.18;100.00;46646.72;5073082;28;20093;-71
2022/10/28 00:46:28;;;;;;;22.33;11.57;;;;;;;-145.18;100.00;46646.72;5072573;28;20067;-71
2022/10/28 00:48:59;;;;;;;25.73;12.17;;;;;;;-145.18;100.00;46646.72;5072616;28;20020;-70
2022/10/28 00:51:27;;;;;;;24.20;11.73;;;;;;;-145.18;100.00;46642.81;5072802;28;20440;-70
2022/10/28 00:53:55;;;;;;;21.37;12.27;;;;;;;-145.18;100.00;46646.72;5072682;28;20132;-70
2022/10/28 00:56:23;;;;;;;21.23;10.20;;;;;;;-145.18;100.00;46644.78;5072515;28;20024;-70
2022/10/28 00:58:49;;;;;;;23.80;10.80;;;;;;;-145.18;100.00;46640.88;5072601;28;20029;-70
2022/10/28 01:01:15;;;;;;;17.83;9.17;;;;;;;-145.18;100.00;46652.59;5069674;28;20142;-70
2022/10/28 01:03:40;;;;;;;28.93;11.23;;;;;;;-145.18;100.00;46652.59;5052154;28;20119;-70
2022/10/28 01:06:06;;;;;;;25.73;10.87;;;;;;;-145.18;100.00;46644.78;5051922;28;20127;-70
2022/10/28 01:08:31;;;;;;;26.50;10.20;;;;;;;-145.18;100.00;46648.69;5052162;28;20029;-70
2022/10/28 01:11:34;;;;;;;18.50;9.37;;;;;;;-145.18;100.00;46654.53;5052301;28;20555;-70
2022/10/28 01:14:29;;;;;;;19.70;9.07;;;;;;;-145.18;100.00;46644.78;5052116;28;20036;-70
2022/10/28 01:17:13;;;;;;;18.13;9.80;;;;;;;-145.18;100.00;46648.69;5052149;28;20033;-70
2022/10/28 01:20:04;;;;;;;22.23;10.57;;;;;;;-145.18;100.00;46648.69;5052608;28;20540;-70
2022/10/28 01:22:51;;;;;;;25.97;11.83;;;;;;;-145.18;100.00;46648.69;5052214;28;20025;-71
2022/10/28 01:25:31;;;;;;;;;;;;;;;-145.18;100.00;46648.69;5051410;28;20482;-70
2022/10/28 01:28:06;;;;;;;28.47;11.17;;;;;;;-145.18;100.00;46654.53;5051941;28;19965;-70
2022/10/28 01:31:00;;;;;;;19.57;11.10;;;;;;;-145.18;100.00;46648.69;5052233;28;20029;-70
2022/10/28 01:33:50;;;;;;;25.10;11.43;;;;;;;-145.18;100.00;46652.59;5042436;28;20102;-70
2022/10/28 01:36:30;;;;;;;25.50;11.27;;;;;;;-145.18;100.00;46644.78;5051436;28;20086;-70
2022/10/28 01:39:23;;;;;;;26.83;11.93;;;;;;;-145.18;100.00;46652.59;5051516;28;20029;-71
2022/10/28 01:41:58;;;;;;;18.97;10.83;;;;;;;-145.18;100.00;46648.69;5051805;28;20116;-71
2022/10/28 01:44:27;;;;;;;21.43;11.57;;;;;;;-145.18;100.00;46648.69;5051936;28;20492;-71
2022/10/28 01:47:19;;;;;;;25.93;11.00;;;;;;;-145.18;100.00;46648.69;5051392;28;20033;-71
2022/10/28 01:50:00;;;;;;;24.93;12.57;;;;;;;-145.18;100.00;46648.69;5044910;28;20049;-70
2022/10/28 01:52:29;;;;;;;21.60;11.73;;;;;;;-145.18;100.00;46648.69;5051767;28;20029;-69
2022/10/28 01:55:02;;;;;;;32.10;13.47;;;;;;;-145.18;100.00;46648.69;5051660;28;20090;-69
2022/10/28 01:57:30;;;;;;;25.90;13.70;;;;;;;-145.18;100.00;46648.69;5051082;28;20032;-69
2022/10/28 01:59:56;;;;;;;27.90;12.70;;;;;;;-145.18;100.00;46644.78;5051463;28;20032;-70
2022/10/28 02:02:22;;;;;;;33.60;13.93;;;;;;;-145.18;100.00;46646.72;5049766;28;20087;-70
2022/10/28 02:04:47;;;;;;;32.60;14.30;;;;;;;-145.18;100.00;46646.72;5051528;28;20032;-69
2022/10/28 02:07:13;;;;;;;31.53;14.83;;;;;;;-145.18;100.00;46646.72;5051249;28;20394;-69
2022/10/28 02:09:54;;;;;;;25.53;14.30;;;;;;;-145.18;100.00;46648.69;5051421;28;20102;-69
2022/10/28 02:12:28;;;;;;;32.27;14.50;;;;;;;-145.18;100.00;46650.63;5051013;28;20033;-69
2022/10/28 02:15:03;;;;;;;30.77;14.57;;;;;;;-145.18;100.00;46646.72;5051379;28;20477;-69
2022/10/28 02:17:47;;;;;;;28.67;13.17;;;;;;;-145.18;100.00;46650.63;5051027;28;20103;-69
2022/10/28 02:20:29;;;;;;;29.37;14.03;;;;;;;-145.18;100.00;46652.59;5050322;28;20037;-69
2022/10/28 02:23:12;;;;;;;25.87;13.17;;;;;;;-145.18;100.00;46650.63;5050984;28;20477;-69
2022/10/28 02:25:47;;;;;;;26.57;12.30;;;;;;;-145.18;100.00;46654.53;5049867;28;20409;-68
2022/10/28 02:28:21;;;;;;;28.33;12.30;;;;;;;-145.18;100.00;46648.69;5049323;28;20083;-69
2022/10/28 02:30:46;;;;;;;27.97;12.27;;;;;;;-145.18;100.00;46644.78;5051137;28;20130;-68
2022/10/28 02:33:18;;;;;;;25.23;11.43;;;;;;;-145.18;100.00;46646.72;5050709;28;20521;-69
2022/10/28 02:35:49;;;;;;;24.63;10.97;;;;;;;-145.18;100.00;46650.63;5050973;28;20079;-69
2022/10/28 02:38:20;;;;;;;28.20;11.30;;;;;;;-145.18;100.00;46654.53;5050620;28;20048;-69
2022/10/28 02:40:50;;;;;;;16.83;9.90;;;;;;;-145.18;100.00;46646.72;5050881;28;20482;-69
2022/10/28 02:43:18;;;;;;;17.87;9.23;;;;;;;-145.18;100.00;46648.69;5050533;28;20154;-69
2022/10/28 02:45:47;;;;;;;19.93;10.50;;;;;;;-145.18;100.00;46650.63;5050762;28;20125;-69
2022/10/28 02:48:23;;;;;;;24.83;9.67;;;;;;;-145.18;100.00;46650.63;5050118;28;20037;-68
2022/10/28 02:50:54;;;;;;;23.23;9.17;;;;;;;-145.18;100.00;46646.72;5050599;28;20043;-69
2022/10/28 02:53:28;;;;;;;19.97;9.30;;;;;;;-145.18;100.00;46654.53;5050558;28;20112;-69
2022/10/28 02:55:57;;;;;;;23.00;9.20;;;;;;;-145.18;100.00;46652.59;5050387;28;20075;-69
2022/10/28 02:58:22;;;;;;;20.53;9.17;;;;;;;-145.18;100.00;46654.53;5050146;28;20068;-68
2022/10/28 03:03:23;;;;;;;23.52;9.63;;;;;;;-145.18;100.00;46654.53;5204849;22;20400;-70
2022/10/28 03:05:48;;;;;;;20.07;8.73;;;;;;;-145.18;100.00;46656.50;5069874;28;20032;-70
2022/10/28 03:08:14;;;;;;;24.47;8.73;;;;;;;-145.18;100.00;46656.50;5070069;28;20051;-70
2022/10/28 03:10:39;;;;;;;18.53;9.07;;;;;;;-145.18;100.00;46650.63;5070468;28;20033;-69
2022/10/28 03:13:04;;;;;;;23.23;8.27;;;;;;;-145.18;100.00;46652.59;5070098;28;20025;-71
2022/10/28 03:15:30;;;;;;;23.47;9.37;;;;;;;-145.18;100.00;46654.53;5070980;28;20492;-69
2022/10/28 03:17:55;;;;;;;16.30;8.83;;;;;;;-145.18;100.00;46652.59;5069941;28;20402;-69
2022/10/28 03:20:20;;;;;;;19.30;8.67;;;;;;;-145.18;100.00;46656.50;5070366;28;20155;-69
2022/10/28 03:22:46;;;;;;;20.83;8.70;;;;;;;-145.18;100.00;46654.53;5069992;28;20040;-70
2022/10/28 03:25:11;;;;;;;16.83;7.97;;;;;;;-145.18;100.00;46654.53;5052234;28;20067;-69
2022/10/28 03:27:40;;;;;;;16.97;8.63;;;;;;;-145.18;100.00;46654.53;5070104;28;20075;-69
2022/10/28 03:30:06;;;;;;;24.53;9.73;;;;;;;-145.18;100.00;46648.69;5072695;28;20037;-69
2022/10/28 03:32:31;;;;;;;15.57;7.87;;;;;;;-145.18;100.00;46660.41;5076634;28;20085;-70
2022/10/28 03:34:56;;;;;;;17.63;8.37;;;;;;;-145.18;100.00;46654.53;5076662;28;20102;-70
2022/10/28 03:37:22;;;;;;;17.90;8.30;;;;;;;-145.18;100.00;46650.63;5076917;28;20044;-70
2022/10/28 03:39:47;;;;;;;16.93;8.63;;;;;;;-145.18;100.00;46656.50;5058900;28;20036;-70
2022/10/28 03:42:12;;;;;;;17.80;7.67;;;;;;;-145.18;100.00;46654.53;5076531;28;20043;-70
2022/10/28 03:44:38;;;;;;;19.00;8.47;;;;;;;-145.18;100.00;46652.59;5076887;28;20554;-70
2022/10/28 03:47:03;;;;;;;18.37;7.03;;;;;;;-145.18;100.00;46654.53;5076190;28;20692;-70
2022/10/28 03:49:28;;;;;;;18.23;8.03;;;;;;;-145.18;100.00;46656.50;5076625;28;20506;-70
2022/10/28 03:51:54;;;;;;;24.23;8.47;;;;;;;-145.18;100.00;46662.34;5076609;28;20024;-70
2022/10/28 03:54:19;;;;;;;19.13;8.37;;;;;;;-145.18;100.00;46658.44;5076674;28;20089;-70
2022/10/28 03:56:44;;;;;;;17.87;8.40;;;;;;;-145.18;100.00;46654.53;5076514;28;20067;-70
2022/10/28 03:59:10;;;;;;;20.43;8.37;;;;;;;-145.18;100.00;46660.41;5076138;28;20036;-70
2022/10/28 04:01:35;;;;;;;15.30;7.70;;;;;;;-145.18;100.00;46660.41;5076746;28;20033;-70
2022/10/28 04:04:01;;;;;;;16.93;7.73;;;;;;;-145.18;100.00;46658.44;5076305;28;20559;-70
2022/10/28 04:06:27;;;;;;;18.53;7.93;;;;;;;-145.18;100.00;46656.50;5076474;28;20151;-69
2022/10/28 04:08:53;;;;;;;12.00;7.17;;;;;;;-145.18;100.00;46662.34;5075146;28;20111;-70
2022/10/28 04:11:18;;;;;;;21.60;7.33;;;;;;;-145.18;100.00;46660.41;5084951;28;20060;-70
2022/10/28 04:13:43;;;;;;;14.93;7.33;;;;;;;-145.18;100.00;46660.41;5086244;28;20039;-70
2022/10/28 04:16:09;;;;;;;16.17;7.87;;;;;;;-145.18;100.00;46662.34;5084310;28;20040;-70
2022/10/28 04:18:34;;;;;;;19.20;7.33;;;;;;;-145.18;100.00;46662.34;5082877;28;20076;-70
2022/10/28 04:21:00;;;;;;;16.07;7.40;;;;;;;-145.18;100.00;46660.41;5075149;28;20067;-70
2022/10/28 04:23:25;;;;;;;20.53;7.63;;;;;;;-145.18;100.00;46662.34;5075973;28;20072;-69
2022/10/28 04:25:54;;;;;;;17.23;6.80;;;;;;;-145.18;100.00;46658.44;5075538;28;20025;-70
2022/10/28 04:28:22;;;;;;;22.17;8.60;;;;;;;-145.18;100.00;46658.44;5075632;28;20078;-69
2022/10/28 04:30:48;;;;;;;19.50;7.43;;;;;;;-145.18;100.00;46658.44;5075406;28;20093;-69
2022/10/28 04:33:14;;;;;;;18.50;7.70;;;;;;;-145.18;100.00;46658.44;5086031;28;20028;-69
2022/10/28 04:35:42;;;;;;;18.47;7.67;;;;;;;-145.18;100.00;46658.44;5080582;28;20038;-69
2022/10/28 04:38:08;;;;;;;17.30;6.97;;;;;;;-145.18;100.00;46654.53;5076313;28;20068;-69
2022/10/28 04:40:34;;;;;;;15.07;6.53;;;;;;;-145.18;100.00;46658.44;5075197;28;20031;-70
2022/10/28 04:42:59;;;;;;;15.73;7.03;;;;;;;-145.18;100.00;46662.34;5069502;28;20036;-69
2022/10/28 04:45:24;;;;;;;19.73;7.30;;;;;;;-145.18;100.00;46660.41;5086732;28;20490;-69
2022/10/28 04:47:55;;;;;;;14.63;6.57;;;;;;;-145.18;100.00;46656.50;5075825;28;20505;-70
2022/10/28 04:50:21;;;;;;;14.67;6.37;;;;;;;-145.18;100.00;46658.44;5087288;28;20032;-70
2022/10/28 04:52:46;;;;;;;16.33;6.70;;;;;;;-145.18;100.00;46662.34;5086677;28;20036;-70
2022/10/28 04:55:11;;;;;;;15.93;6.37;;;;;;;-145.18;100.00;46662.34;5082242;28;20504;-70
2022/10/28 04:57:37;;;;;;;13.80;6.40;;;;;;;-145.18;100.00;46658.44;5082496;28;20498;-70
2022/10/28 05:00:03;;;;;;;18.67;6.90;;;;;;;-145.18;100.00;46658.44;5084745;28;20036;-70
2022/10/28 05:02:29;;;;;;;20.37;7.17;;;;;;;-145.18;100.00;46658.44;5072599;28;20064;-70
2022/10/28 05:04:54;;;;;;;12.47;7.60;;;;;;;-145.18;100.00;46658.44;5071312;28;20405;-70
2022/10/28 05:07:19;;;;;;;17.07;6.93;;;;;;;-145.18;100.00;46658.44;5071940;28;20154;-70
2022/10/28 05:09:45;;;;;;;19.07;7.93;;;;;;;-145.18;100.00;46668.22;5072864;28;20036;-70
2022/10/28 05:12:10;;;;;;;23.23;8.03;;;;;;;-145.18;100.00;46658.44;5072530;28;20104;-70
2022/10/28 05:14:35;;;;;;;17.17;7.53;;;;;;;-145.18;100.00;46664.31;5072719;28;20174;-70
2022/10/28 05:17:00;;;;;;;17.13;6.27;;;;;;;-145.18;100.00;46658.44;5072270;28;20049;-70
2022/10/28 05:19:26;;;;;;;19.10;6.50;;;;;;;-145.18;100.00;46660.41;5072314;28;20048;-69
2022/10/28 05:21:51;;;;;;;20.13;7.23;;;;;;;-145.18;100.00;46658.44;5070736;28;20032;-70
2022/10/28 05:24:16;;;;;;;21.13;7.57;;;;;;;-145.18;100.00;46664.31;5072043;28;20496;-70
2022/10/28 05:26:42;;;;;;;21.77;6.90;;;;;;;-145.18;100.00;46660.41;5072258;28;20068;-69
2022/10/28 05:29:07;;;;;;;19.40;7.23;;;;;;;-145.18;100.00;46654.53;5072101;28;20045;-69
2022/10/28 05:31:32;;;;;;;19.07;7.03;;;;;;;-145.18;100.00;46664.31;5071627;28;20041;-69
2022/10/28 05:33:58;;;;;;;19.00;6.63;;;;;;;-145.18;100.00;46660.41;5070116;28;20185;-69
2022/10/28 05:36:23;;;;;;;18.90;7.53;;;;;;;-145.18;100.00;46664.31;5071711;28;20480;-69
2022/10/28 05:38:48;;;;;;;15.90;6.60;;;;;;;-145.18;100.00;46664.31;5071174;28;20040;-69
2022/10/28 05:41:14;;;;;;;16.47;6.83;;;;;;;-145.18;100.00;46662.34;5072047;28;20037;-69
2022/10/28 05:43:40;;;;;;;15.90;7.10;;;;;;;-145.18;100.00;46662.34;5070513;28;20055;-69
2022/10/28 05:46:05;;;;;;;16.47;7.23;;;;;;;-145.18;100.00;46662.34;5070980;28;20112;-70
2022/10/28 05:48:30;;;;;;;17.70;6.83;;;;;;;-145.18;100.00;46662.34;5071605;28;20048;-70
2022/10/28 05:50:56;;;;;;;22.13;6.90;;;;;;;-145.18;100.00;46660.41;5071619;28;20039;-70
2022/10/28 05:53:21;;;;;;;15.93;7.80;;;;;;;-145.18;100.00;46664.31;5071205;28;20821;-70
2022/10/28 05:55:47;;;;;;;12.93;6.07;;;;;;;-145.18;100.00;46656.50;5071316;28;20115;-70
2022/10/28 05:58:12;;;;;;;14.63;6.03;;;;;;;-145.18;100.00;46664.31;5071184;28;20063;-70
2022/10/28 06:00:37;;;;;;;19.83;7.30;;;;;;;-145.18;100.00;46660.41;5071197;28;20405;-70
2022/10/28 06:03:10;;;;;;;17.00;8.00;;;;;;;-145.18;100.00;46664.31;5070797;28;20444;-70
2022/10/28 06:05:42;;;;;;;22.30;7.70;;;;;;;-145.18;100.00;46660.41;5070975;28;20099;-70
2022/10/28 06:08:10;;;;;;;23.53;7.57;;;;;;;-145.18;100.00;46662.34;5071104;28;20499;-70
2022/10/28 06:10:36;;;;;;;13.60;6.83;;;;;;;-145.18;100.00;46656.50;5071123;28;20044;-70
2022/10/28 06:13:01;;;;;;;17.90;7.00;;;;;;;-145.18;100.00;46656.50;5071219;28;20036;-69
2022/10/28 06:15:26;;;;;;;20.87;6.50;;;;;;;-145.18;100.00;46656.50;5070736;28;20157;-69
2022/10/28 06:17:52;;;;;;;19.27;7.40;;;;;;;-145.18;100.00;46660.41;5070476;28;20037;-69
2022/10/28 06:20:18;;;;;;;17.90;6.63;;;;;;;-145.18;100.00;46656.50;5069214;28;20037;-69
2022/10/28 06:22:51;;;;;;;29.57;7.23;;;;;;;-145.18;100.00;46664.31;5070863;28;20037;-69
2022/10/28 06:25:17;;;;;;;15.77;6.60;;;;;;;-145.18;100.00;46664.31;5052417;28;20511;-69
2022/10/28 06:27:42;;;;;;;17.50;6.97;;;;;;;-145.18;100.00;46664.31;5070711;28;20190;-69
2022/10/28 06:30:08;;;;;;;20.53;7.10;;;;;;;-145.18;100.00;46660.41;5070293;28;20540;-69
2022/10/28 06:32:33;;;;;;;21.73;6.67;;;;;;;-145.18;100.00;46660.41;5070313;28;20025;-69
2022/10/28 06:34:59;;;;;;;20.90;7.07;;;;;;;-145.18;100.00;46660.41;5069836;28;20068;-69
2022/10/28 06:37:24;;;;;;;24.60;7.70;;;;;;;-145.18;100.00;46660.41;5070461;28;20043;-69
2022/10/28 06:39:53;;;;;;;16.30;6.70;;;;;;;-145.18;100.00;46656.50;5070414;28;20040;-69
2022/10/28 06:42:19;;;;;;;16.57;6.70;;;;;;;-145.18;100.00;46660.41;5069051;28;20085;-69
2022/10/28 06:44:44;;;;;;;24.80;7.17;;;;;;;-145.18;100.00;46656.50;5070082;28;20086;-69
2022/10/28 06:47:10;;;;;;;17.37;6.47;;;;;;;-145.18;100.00;46662.34;5070346;28;20570;-69
2022/10/28 06:49:35;;;;;;;18.23;6.77;;;;;;;-145.18;100.00;46664.31;5070233;28;20036;-69
2022/10/28 06:52:01;;;;;;;18.17;6.47;;;;;;;-145.18;100.00;46664.31;5069958;28;20040;-69
2022/10/28 06:54:26;;;;;;;19.47;6.77;;;;;;;-145.18;100.00;46664.31;5070017;28;20492;-69
2022/10/28 06:56:51;;;;;;;16.03;6.30;;;;;;;-145.18;100.00;46664.31;5069747;28;20048;-69
2022/10/28 06:59:17;;;;;;;19.03;6.20;;;;;;;-145.18;100.00;46662.34;5070065;28;20032;-69
2022/10/28 07:01:42;;;;;;;18.73;6.97;;;;;;;-145.18;100.00;46668.22;5070159;28;20497;-69
2022/10/28 07:04:12;;;;;;;15.23;6.60;;;;;;;-145.18;100.00;46664.31;5069180;28;20056;-69
2022/10/28 07:06:38;;;;;;;15.10;6.33;;;;;;;-145.18;100.00;46670.16;5069835;28;20040;-69
2022/10/28 07:09:04;;;;;;;17.20;7.43;;;;;;;-145.18;100.00;46662.34;5069731;28;20515;-69
2022/10/28 07:11:29;;;;;;;23.07;6.83;;;;;;;-145.18;100.00;46662.34;5069768;28;20036;-69
2022/10/28 07:13:55;;;;;;;20.23;6.57;;;;;;;-145.18;100.00;46664.31;5070855;28;20045;-69
2022/10/28 07:16:20;;;;;;;20.17;6.40;;;;;;;-145.18;100.00;46672.13;5064105;28;20060;-69
2022/10/28 07:18:46;;;;;;;18.57;6.17;;;;;;;-145.18;100.00;46664.31;5066467;28;20037;-70
2022/10/28 07:21:12;;;;;;;28.33;6.30;;;;;;;-145.18;100.00;46672.13;5066274;28;20024;-69
2022/10/28 07:23:38;;;;;;;12.70;5.83;;;;;;;-145.18;100.00;46668.22;5067133;28;20078;-69
2022/10/28 07:26:03;;;;;;;19.60;6.73;;;;;;;-145.18;100.00;46679.94;5065249;28;20439;-69
2022/10/28 07:28:29;;;;;;;16.80;6.30;;;;;;;-145.18;100.00;46679.94;5065515;28;20040;-69
2022/10/28 07:30:58;;;;;;;21.97;6.43;;;;;;;-145.18;100.00;46672.13;5066310;28;20400;-69
2022/10/28 07:33:23;;;;;;;19.83;6.10;;;;;;;-145.18;100.00;46676.03;5069323;28;20037;-69
2022/10/28 07:35:49;;;;;;;17.07;5.93;;;;;;;-145.18;100.00;46677.97;5069629;28;20110;-69
2022/10/28 07:38:14;;;;;;;21.93;5.60;;;;;;;-145.18;100.00;46687.75;5063857;28;20041;-69
2022/10/28 07:40:39;;;;;;;18.27;5.63;;;;;;;-145.18;100.00;46676.03;5062346;28;20036;-69
2022/10/28 07:43:05;;;;;;;15.07;6.63;;;;;;;-145.18;100.00;46676.03;5067578;28;20645;-69
2022/10/28 07:45:30;;;;;;;21.30;6.40;;;;;;;-145.18;100.00;46674.06;5068680;28;20074;-69
2022/10/28 07:47:56;;;;;;;22.47;6.73;;;;;;;-145.18;100.00;46679.94;5069271;28;20480;-69
2022/10/28 07:50:21;;;;;;;18.13;6.47;;;;;;;-145.18;100.00;46677.97;5069429;28;20493;-69
2022/10/28 07:52:46;;;;;;;19.63;6.43;;;;;;;-145.18;100.00;46683.84;5069702;28;20036;-70
2022/10/28 07:55:12;;;;;;;19.93;6.53;;;;;;;-145.18;100.00;46681.88;5069078;28;20032;-69
2022/10/28 07:57:37;;;;;;;21.47;6.00;;;;;;;-145.18;100.00;46674.06;5069240;28;20047;-70
2022/10/28 08:00:04;;;;;;;26.40;7.00;;;;;;;-145.18;100.00;46679.94;5068577;28;20421;-70
2022/10/28 08:02:30;;;;;;;18.30;6.60;;;;;;;-145.18;100.00;46677.97;5071641;28;20044;-70
2022/10/28 08:04:55;;;;;;;18.57;7.13;;;;;;;-145.18;100.00;46677.97;5067970;28;20512;-69
2022/10/28 08:07:22;;;;;;;16.50;5.80;;;;;;;-145.18;100.00;46683.84;5068334;28;20040;-69
2022/10/28 08:09:47;;;;;;;18.17;5.93;;;;;;;-145.18;100.00;46681.88;5068943;28;20473;-69
2022/10/28 08:12:14;;;;;;;28.37;6.70;;;;;;;-145.18;100.00;46681.88;5067919;28;20086;-70
2022/10/28 08:14:39;;;;;;;22.33;6.50;;;;;;;-145.18;100.00;46681.88;5068649;28;20063;-69
2022/10/28 08:17:05;;;;;;;25.47;6.07;;;;;;;-145.18;100.00;46685.78;5070348;28;20056;-69
2022/10/28 08:19:30;;;;;;;21.37;6.93;;;;;;;-145.18;100.00;46681.88;5071760;28;20396;-69
2022/10/28 08:21:56;;;;;;;18.50;6.37;;;;;;;-145.18;100.00;46683.84;5072924;28;20024;-69
2022/10/28 08:24:21;;;;;;;20.13;7.00;;;;;;;-145.18;100.00;46681.88;5071390;28;20043;-69
2022/10/28 08:26:47;;;;;;;14.43;6.43;;;;;;;-145.18;100.00;46679.94;5072441;28;20083;-70
2022/10/28 08:29:12;;;;;;;16.57;6.20;;;;;;;-145.18;100.00;46679.94;5072918;28;20037;-70
2022/10/28 08:31:38;;;;;;;21.00;6.47;;;;;;;-145.18;100.00;46676.03;5072989;28;20051;-69
2022/10/28 08:34:05;;;;;;;17.53;6.27;;;;;;;-145.18;100.00;46679.94;5072222;28;20499;-70
2022/10/28 08:36:30;;;;;;;22.23;6.90;;;;;;;-145.18;100.00;46681.88;5071313;28;20032;-69
2022/10/28 08:38:58;;;;;;;18.10;6.87;;;;;;;-145.18;100.00;46687.75;5072721;28;20032;-70
2022/10/28 08:41:29;;;;;;;22.80;5.97;;;;;;;-145.18;100.00;46685.78;5072375;28;20048;-70
2022/10/28 08:44:19;;;;;;;21.83;6.77;;;;;;;-145.18;100.00;46689.69;5071819;28;20037;-70
2022/10/28 08:47:11;;;;;;;20.23;6.93;;;;;;;-145.18;100.00;46685.78;5072283;28;20044;-70
2022/10/28 08:49:40;;;;;;;20.50;6.93;;;;;;;-145.18;100.00;46691.66;5072583;28;20040;-70
2022/10/28 08:52:33;;;;;;;21.60;6.90;;;;;;;-145.18;100.00;46687.75;5072093;28;20042;-70
2022/10/28 08:55:33;;;;;;;17.80;6.40;;;;;;;-145.18;100.00;46691.66;5071435;28;20473;-69
2022/10/28 08:58:10;;;;;;;19.87;6.73;;;;;;;-145.18;100.00;46685.78;5067710;28;20040;-70
2022/10/28 09:00:36;;;;;;;19.53;7.53;;;;;;;-145.18;100.00;46689.69;5072514;28;20750;-70
2022/10/28 09:03:11;;;;;;;21.73;6.70;;;;;;;-145.18;100.00;46687.75;5071340;28;20127;-70
2022/10/28 09:05:41;;;;;;;16.53;6.07;;;;;;;-145.18;100.00;46693.59;5072323;28;20162;-70
2022/10/28 09:08:18;;;;;;;14.73;6.30;;;;;;;-145.18;100.00;46687.75;5071609;28;20116;-70
2022/10/28 09:11:08;;;;;;;17.23;6.13;;;;;;;-145.18;100.00;46683.84;5072370;28;20024;-70
2022/10/28 09:14:15;;;;;;;20.87;7.50;;;;;;;-145.18;100.00;46687.75;5071867;28;20060;-70
2022/10/28 09:17:05;;;;;;;19.67;7.07;;;;;;;-145.18;100.00;46691.66;5071438;28;20039;-70
2022/10/28 09:19:51;;;;;;;21.60;6.93;;;;;;;-145.18;100.00;46687.75;5072258;28;20052;-70
2022/10/28 09:22:44;;;;;;;18.75;6.60;;;;;;;-145.18;100.00;46687.75;5052029;28;20048;-70
2022/10/28 09:25:47;;;;;;;21.60;6.80;;;;;;;-145.18;100.00;46691.66;5054224;28;20116;-71
2022/10/28 09:28:30;;;;;;;19.33;6.40;;;;;;;-145.18;100.00;46691.66;5070441;28;20074;-71
2022/10/28 09:31:09;;;;;;;18.77;6.13;;;;;;;-145.18;100.00;46691.66;5071946;28;20090;-70
2022/10/28 09:33:39;;;;;;;20.63;6.80;;;;;;;-145.18;100.00;46693.59;5071751;28;20021;-70
2022/10/28 09:36:10;;;;;;;16.47;6.07;;;;;;;-145.18;100.00;46689.69;5071720;28;20056;-71
2022/10/28 09:38:39;;;;;;;17.03;7.10;;;;;;;-145.18;100.00;46689.69;5069764;28;20421;-71
2022/10/28 09:41:13;;;;;;;17.43;5.90;;;;;;;-145.18;100.00;46687.75;5071583;28;20033;-71
2022/10/28 09:44:12;;;;;;;16.50;6.13;;;;;;;-145.18;100.00;46685.78;5071487;28;20055;-71
2022/10/28 09:46:39;;;;;;;16.17;5.83;;;;;;;-145.18;100.00;46691.66;5071069;28;20053;-71
2022/10/28 09:49:12;;;;;;;26.83;6.00;;;;;;;-145.18;100.00;46683.84;5069826;28;20036;-71
2022/10/28 09:51:43;;;;;;;14.40;5.27;;;;;;;-145.18;100.00;46681.88;5071512;28;20041;-71
2022/10/28 09:54:11;;;;;;;19.23;5.77;;;;;;;-145.18;100.00;46683.84;5070769;28;20056;-71
2022/10/28 09:56:37;;;;;;;19.93;6.27;;;;;;;-145.18;100.00;46666.25;5071267;28;20040;-71
2022/10/28 09:59:03;;;;;;;19.70;5.67;;;;;;;-145.18;100.00;46664.31;5069580;28;20043;-71
2022/10/28 10:01:34;;;;;;;23.20;6.20;;;;;;;-145.18;100.00;46646.72;5070924;28;20542;-71
2022/10/28 10:04:01;;;;;;;22.73;5.77;;;;;;;-145.18;100.00;46609.59;5069628;28;20048;-71
2022/10/28 10:06:34;;;;;;;17.97;6.07;;;;;;;-145.18;100.00;46586.16;5071768;28;20086;-71
2022/10/28 10:09:00;;;;;;;21.80;5.77;;;;;;;-145.18;100.00;46584.22;5071091;28;20056;-71
2022/10/28 10:11:32;;;;;;;20.97;5.27;;;;;;;-145.18;100.00;46586.16;5071403;28;20068;-71
2022/10/28 10:14:02;;;;;;;22.63;4.90;;;;;;;-145.18;100.00;46586.16;5070716;28;20032;-71
2022/10/28 10:16:45;;;;;;;21.37;6.60;;;;;;;-145.18;100.00;46572.50;5071310;28;20056;-71
2022/10/28 10:19:11;;;;;;;18.53;6.13;;;;;;;-145.18;100.00;46582.25;5071166;28;20127;-71
2022/10/28 10:21:46;;;;;;;19.87;5.47;;;;;;;-145.18;100.00;46570.53;5071415;28;20047;-71
2022/10/28 10:24:27;;;;;;;20.52;5.68;;;;;;;-145.18;100.00;46572.50;5071013;28;20024;-71
2022/10/28 10:26:53;;;;;;;18.77;5.27;;;;;;;-145.18;100.00;46568.59;5070980;28;20032;-71
2022/10/28 10:29:20;;;;;;;10.47;4.83;;;;;;;-145.18;100.00;46578.34;5070179;28;20089;-71
2022/10/28 10:31:46;;;;;;;22.40;5.87;;;;;;;-145.18;100.00;46586.16;5069714;28;20024;-71
2022/10/28 10:34:25;;;;;;;17.60;4.93;;;;;;;-145.18;100.00;46578.34;5070509;28;20499;-71
2022/10/28 10:36:54;;;;;;;17.87;5.27;;;;;;;-145.18;100.00;46590.06;5070725;28;20104;-71
2022/10/28 10:39:26;;;;;;;18.50;5.00;;;;;;;-145.18;100.00;46584.22;5068738;28;20039;-71
2022/10/28 10:41:54;;;;;;;20.23;5.57;;;;;;;-145.18;100.00;46588.13;5078127;28;20558;-71
2022/10/28 10:44:20;;;;;;;13.40;4.77;;;;;;;-145.18;100.00;46588.13;5065111;28;20025;-71
2022/10/28 10:47:05;;;;;;;20.43;5.43;;;;;;;-145.18;100.00;46586.16;5066937;28;20028;-71
2022/10/28 10:49:30;;;;;;;25.63;5.75;;;;;;;-145.18;100.00;46590.06;5067267;28;20388;-71
2022/10/28 10:52:06;;;;;;;17.50;5.07;;;;;;;-145.18;100.00;46593.97;5069092;28;20032;-71
2022/10/28 10:54:33;;;;;;;24.23;6.07;;;;;;;-145.18;100.00;46593.97;5069452;28;20020;-71
2022/10/28 10:57:08;;;;;;;16.80;4.23;;;;;;;-145.18;100.00;46588.13;5070337;28;20504;-71
2022/10/28 10:59:36;;;;;;;15.20;4.63;;;;;;;-145.18;100.00;46593.97;5069114;28;20032;-70
2022/10/28 11:02:14;;;;;;;21.03;4.57;;;;;;;-145.18;100.00;46592.03;5069731;28;20115;-71
2022/10/28 11:04:39;;;;;;;18.97;5.63;;;;;;;-145.18;100.00;46593.97;5069873;28;20106;-70
2022/10/28 11:07:05;;;;;;;24.47;5.03;;;;;;;-145.18;100.00;46584.22;5070145;28;20476;-70
2022/10/28 11:09:35;;;;;;;22.23;5.73;;;;;;;-145.18;100.00;46586.16;5070553;28;20051;-70
2022/10/28 11:12:01;;;;;;;18.53;6.30;;;;;;;-145.18;100.00;46584.22;5070019;28;20542;-70
2022/10/28 11:14:29;;;;;;;25.17;5.33;;;;;;;-145.18;100.00;46592.03;5070464;28;20033;-70